Time;durP1;ratioP1;P1;durP2;ratioP2;P2;SDS_P1;SDS_P2;PMS_P1;PMS_P2;Temp;Humidity;BMP_temperature;BMP_pressure;BME280_temperature;BME280_humidity;BME280_pressure;Samples;Min_cycle;Max_cycle;Signal;HPM_P1;HPM_P2
2024/01/04 00:01:39;;;;;;;9.40;8.80;;;;;;;;;;4960068;28;20889;-58
2024/01/04 00:04:05;;;;;;;9.88;9.18;;;;;;;;;;4961541;28;20560;-60
2024/01/04 00:06:30;;;;;;;9.15;8.57;;;;;;;;;;4959428;28;20049;-61
2024/01/04 00:08:56;;;;;;;9.40;8.90;;;;;;;;;;4962592;28;20033;-60
2024/01/04 00:11:21;;;;;;;9.88;9.27;;;;;;;;;;4960909;28;20050;-62
2024/01/04 00:13:47;;;;;;;10.48;9.68;;;;;;;;;;4942745;28;20053;-60
2024/01/04 00:16:12;;;;;;;9.73;9.13;;;;;;;;;;4963350;28;20051;-60
2024/01/04 00:18:38;;;;;;;9.63;8.82;;;;;;;;;;4960571;28;20050;-62
2024/01/04 00:21:04;;;;;;;9.43;8.63;;;;;;;;;;4962539;28;20058;-62
2024/01/04 00:23:31;;;;;;;10.25;9.45;;;;;;;;;;4958130;28;20088;-61
2024/01/04 00:25:57;;;;;;;9.90;8.93;;;;;;;;;;4956849;28;20034;-62
2024/01/04 00:28:23;;;;;;;9.43;8.82;;;;;;;;;;4960913;28;20030;-59
2024/01/04 00:30:48;;;;;;;10.18;9.13;;;;;;;;;;4940334;28;20081;-61
2024/01/04 00:33:14;;;;;;;10.30;9.30;;;;;;;;;;4945484;28;20047;-60
2024/01/04 00:35:40;;;;;;;10.18;8.68;;;;;;;;;;4955203;28;20035;-62
2024/01/04 00:38:06;;;;;;;9.80;9.07;;;;;;;;;;4946227;28;20039;-60
2024/01/04 00:40:32;;;;;;;10.52;9.75;;;;;;;;;;4957585;28;20154;-61
2024/01/04 00:42:58;;;;;;;9.70;8.98;;;;;;;;;;4962741;28;20031;-59
2024/01/04 00:45:23;;;;;;;9.18;8.57;;;;;;;;;;4944581;28;20035;-60
2024/01/04 00:47:49;;;;;;;9.63;8.93;;;;;;;;;;4955178;28;20051;-60
2024/01/04 00:50:15;;;;;;;9.70;9.00;;;;;;;;;;4945865;28;20173;-60
2024/01/04 00:52:40;;;;;;;10.48;9.57;;;;;;;;;;4941303;28;20752;-60
2024/01/04 00:55:08;;;;;;;10.68;9.70;;;;;;;;;;4958781;28;20034;-60
2024/01/04 00:57:33;;;;;;;10.80;10.18;;;;;;;;;;4940572;28;20089;-59
2024/01/04 00:59:59;;;;;;;10.43;9.77;;;;;;;;;;4929662;28;20050;-61
2024/01/04 01:02:24;;;;;;;10.40;9.48;;;;;;;;;;4960718;28;20197;-61
2024/01/04 01:04:51;;;;;;;11.20;10.30;;;;;;;;;;4945530;28;20031;-61
2024/01/04 01:07:17;;;;;;;11.45;10.30;;;;;;;;;;4960393;28;20050;-60
2024/01/04 01:09:42;;;;;;;11.18;10.30;;;;;;;;;;4959005;28;20058;-60
2024/01/04 01:12:08;;;;;;;18.23;10.95;;;;;;;;;;4945835;28;20039;-61
2024/01/04 01:14:33;;;;;;;10.93;10.30;;;;;;;;;;4957788;28;20045;-60
2024/01/04 01:16:59;;;;;;;12.35;11.18;;;;;;;;;;4962724;28;20027;-62
2024/01/04 01:23:13;;;;;;;11.07;10.38;;;;;;;;;;4954914;28;20167;-62
2024/01/04 01:25:38;;;;;;;10.95;10.35;;;;;;;;;;4954363;28;20125;-62
2024/01/04 01:28:04;;;;;;;10.57;9.98;;;;;;;;;;4969576;28;20038;-61
2024/01/04 01:30:29;;;;;;;10.73;10.13;;;;;;;;;;4944487;28;20160;-61
2024/01/04 01:32:55;;;;;;;10.88;10.13;;;;;;;;;;4947366;28;20034;-60
2024/01/04 01:35:20;;;;;;;10.82;10.07;;;;;;;;;;4948191;28;20035;-61
2024/01/04 01:37:46;;;;;;;10.68;9.88;;;;;;;;;;4958192;28;20038;-61
2024/01/04 01:40:12;;;;;;;11.13;10.32;;;;;;;;;;4964690;28;20038;-61
2024/01/04 01:42:38;;;;;;;11.50;10.40;;;;;;;;;;4961139;28;20056;-61
2024/01/04 01:45:04;;;;;;;10.88;10.23;;;;;;;;;;4950312;28;20046;-61
2024/01/04 01:47:30;;;;;;;10.63;9.65;;;;;;;;;;4971116;28;20436;-61
2024/01/04 01:49:56;;;;;;;11.70;10.98;;;;;;;;;;4973425;28;20474;-61
2024/01/04 01:52:23;;;;;;;11.00;10.20;;;;;;;;;;4962919;28;20047;-59
2024/01/04 01:54:50;;;;;;;11.38;10.38;;;;;;;;;;4951684;28;20198;-59
2024/01/04 01:57:16;;;;;;;10.32;9.73;;;;;;;;;;4967681;28;20432;-60
2024/01/04 01:59:43;;;;;;;10.40;9.60;;;;;;;;;;4948137;28;20039;-59
2024/01/04 02:02:09;;;;;;;10.45;9.82;;;;;;;;;;4945724;28;20049;-61
2024/01/04 02:04:34;;;;;;;12.25;11.00;;;;;;;;;;4960948;28;20043;-62
2024/01/04 02:07:00;;;;;;;11.50;10.68;;;;;;;;;;4945954;28;20058;-61
2024/01/04 02:09:26;;;;;;;11.10;10.05;;;;;;;;;;4947225;28;20051;-60
2024/01/04 02:12:02;;;;;;;10.45;9.80;;;;;;;;;;4972012;28;20048;-61
2024/01/04 02:14:28;;;;;;;10.88;10.15;;;;;;;;;;4966151;28;20468;-62
2024/01/04 02:16:53;;;;;;;10.75;10.00;;;;;;;;;;4938401;28;20038;-61
2024/01/04 02:19:19;;;;;;;10.77;10.18;;;;;;;;;;4953734;28;20026;-61
2024/01/04 02:21:45;;;;;;;9.98;9.48;;;;;;;;;;4960497;28;20042;-61
2024/01/04 02:24:10;;;;;;;10.63;9.95;;;;;;;;;;4953365;28;20049;-60
2024/01/04 02:26:36;;;;;;;11.45;10.55;;;;;;;;;;4950369;28;20118;-61
2024/01/04 02:29:01;;;;;;;9.93;9.25;;;;;;;;;;4969811;28;20030;-62
2024/01/04 02:31:27;;;;;;;10.35;9.43;;;;;;;;;;4972537;28;20394;-62
2024/01/04 02:33:52;;;;;;;9.70;9.10;;;;;;;;;;4949244;28;20138;-61
2024/01/04 02:36:18;;;;;;;9.10;8.60;;;;;;;;;;4944574;28;20102;-61
2024/01/04 02:38:43;;;;;;;10.00;9.40;;;;;;;;;;4936485;28;20034;-61
2024/01/04 02:41:09;;;;;;;9.48;8.95;;;;;;;;;;4950329;28;20038;-62
2024/01/04 02:43:34;;;;;;;10.35;9.65;;;;;;;;;;4965420;28;20230;-62
2024/01/04 02:46:01;;;;;;;9.80;9.23;;;;;;;;;;4946359;28;20034;-62
2024/01/04 02:48:26;;;;;;;10.07;9.48;;;;;;;;;;4937809;28;20046;-61
2024/01/04 02:50:52;;;;;;;10.20;9.65;;;;;;;;;;4953859;28;20057;-62
2024/01/04 02:53:17;;;;;;;9.68;9.07;;;;;;;;;;4947367;28;20035;-62
2024/01/04 02:55:43;;;;;;;10.00;9.50;;;;;;;;;;4952734;28;20788;-61
2024/01/04 02:58:08;;;;;;;10.02;9.43;;;;;;;;;;4943625;28;20043;-62
2024/01/04 03:00:34;;;;;;;9.48;8.77;;;;;;;;;;4960699;28;20592;-61
2024/01/04 03:03:00;;;;;;;9.88;9.38;;;;;;;;;;4971150;28;20038;-60
2024/01/04 03:05:25;;;;;;;14.55;11.70;;;;;;;;;;4943556;28;20053;-59
2024/01/04 03:07:51;;;;;;;9.60;9.02;;;;;;;;;;4964008;28;20393;-61
2024/01/04 03:10:16;;;;;;;8.90;8.40;;;;;;;;;;4968606;28;20109;-61
2024/01/04 03:12:42;;;;;;;9.50;8.90;;;;;;;;;;4967945;28;20027;-58
2024/01/04 03:15:08;;;;;;;8.98;8.48;;;;;;;;;;4972128;28;20038;-61
2024/01/04 03:17:34;;;;;;;9.20;8.60;;;;;;;;;;4961601;28;20127;-62
2024/01/04 03:20:00;;;;;;;9.35;8.77;;;;;;;;;;4944240;28;20606;-61
2024/01/04 03:22:25;;;;;;;9.50;9.00;;;;;;;;;;4948833;28;20042;-60
2024/01/04 03:24:51;;;;;;;9.93;9.35;;;;;;;;;;4967357;28;20058;-60
2024/01/04 03:27:16;;;;;;;9.30;8.80;;;;;;;;;;4971971;28;20026;-61
2024/01/04 03:29:43;;;;;;;9.48;8.98;;;;;;;;;;4943269;28;20126;-61
2024/01/04 03:32:08;;;;;;;9.23;8.73;;;;;;;;;;4972235;28;20065;-61
2024/01/04 03:34:34;;;;;;;9.85;9.25;;;;;;;;;;4955133;28;20165;-58
2024/01/04 03:37:00;;;;;;;9.48;8.98;;;;;;;;;;4967749;28;20038;-61
2024/01/04 03:39:25;;;;;;;9.73;9.13;;;;;;;;;;4969889;28;20046;-60
2024/01/04 03:41:51;;;;;;;9.55;9.05;;;;;;;;;;4966353;28;20086;-60
2024/01/04 03:44:16;;;;;;;9.48;8.98;;;;;;;;;;4963261;28;20038;-58
2024/01/04 03:46:42;;;;;;;9.25;8.75;;;;;;;;;;4960701;28;20046;-60
2024/01/04 03:49:07;;;;;;;9.52;9.00;;;;;;;;;;4968369;28;20034;-58
2024/01/04 03:51:33;;;;;;;9.45;8.95;;;;;;;;;;4962019;28;20035;-62
2024/01/04 03:53:59;;;;;;;10.02;9.30;;;;;;;;;;4967979;28;20039;-61
2024/01/04 03:56:25;;;;;;;9.68;9.18;;;;;;;;;;4965559;28;20050;-60
2024/01/04 03:58:51;;;;;;;9.23;8.73;;;;;;;;;;4968484;28;20735;-61
2024/01/04 04:01:17;;;;;;;9.52;9.02;;;;;;;;;;4969732;28;20038;-60
2024/01/04 04:03:42;;;;;;;10.15;9.45;;;;;;;;;;4963943;28;20125;-62
2024/01/04 04:06:08;;;;;;;10.07;9.48;;;;;;;;;;4965993;28;20182;-61
2024/01/04 04:08:34;;;;;;;9.35;8.85;;;;;;;;;;4961927;28;20035;-61
2024/01/04 04:10:59;;;;;;;10.18;9.68;;;;;;;;;;4965439;28;20118;-61
2024/01/04 04:13:25;;;;;;;10.00;9.40;;;;;;;;;;4960178;28;20045;-61
2024/01/04 04:15:51;;;;;;;9.25;8.75;;;;;;;;;;4968969;28;20527;-61
2024/01/04 04:18:16;;;;;;;9.35;8.85;;;;;;;;;;4951310;28;20052;-62
2024/01/04 04:20:42;;;;;;;9.98;9.38;;;;;;;;;;4970421;28;21559;-62
2024/01/04 04:23:07;;;;;;;10.13;9.63;;;;;;;;;;4966056;28;20038;-60
2024/01/04 04:25:36;;;;;;;10.60;10.00;;;;;;;;;;4959378;28;20508;-61
2024/01/04 04:28:02;;;;;;;10.25;9.55;;;;;;;;;;4964235;28;20108;-60
2024/01/04 04:30:29;;;;;;;10.13;9.63;;;;;;;;;;4967389;28;20113;-61
2024/01/04 04:32:55;;;;;;;10.65;10.05;;;;;;;;;;4967936;28;20026;-62
2024/01/04 04:35:21;;;;;;;10.93;10.13;;;;;;;;;;4966328;28;20093;-60
2024/01/04 04:37:47;;;;;;;9.95;9.35;;;;;;;;;;4963930;28;20488;-62
2024/01/04 04:40:12;;;;;;;10.85;10.15;;;;;;;;;;4970296;28;20042;-61
2024/01/04 04:42:38;;;;;;;10.20;9.63;;;;;;;;;;4963814;28;20142;-59
2024/01/04 04:45:04;;;;;;;10.18;9.57;;;;;;;;;;4967774;28;20069;-60
2024/01/04 04:47:30;;;;;;;10.40;9.50;;;;;;;;;;4956503;28;20043;-61
2024/01/04 04:49:56;;;;;;;9.07;8.48;;;;;;;;;;4960962;28;20033;-60
2024/01/04 04:52:21;;;;;;;9.75;9.18;;;;;;;;;;4962241;28;20114;-60
2024/01/04 04:54:47;;;;;;;10.80;9.80;;;;;;;;;;4960969;28;20696;-61
2024/01/04 04:57:13;;;;;;;9.88;9.38;;;;;;;;;;4956134;28;20038;-60
2024/01/04 04:59:38;;;;;;;9.48;8.98;;;;;;;;;;4960319;28;20046;-61
2024/01/04 05:02:04;;;;;;;10.00;9.45;;;;;;;;;;4959725;28;20077;-61
2024/01/04 05:04:30;;;;;;;10.20;9.50;;;;;;;;;;4961826;28;20131;-61
2024/01/04 05:06:55;;;;;;;9.60;9.10;;;;;;;;;;4965702;28;20579;-59
2024/01/04 05:09:21;;;;;;;9.73;9.02;;;;;;;;;;4964980;28;20125;-60
2024/01/04 05:11:46;;;;;;;10.00;9.18;;;;;;;;;;4962975;28;20035;-60
2024/01/04 05:14:12;;;;;;;9.65;9.15;;;;;;;;;;4970176;28;20125;-61
2024/01/04 05:16:40;;;;;;;10.00;9.40;;;;;;;;;;4960433;28;20512;-61
2024/01/04 05:19:10;;;;;;;10.48;9.77;;;;;;;;;;4953620;28;20035;-61
2024/01/04 05:21:36;;;;;;;;;;;;;;;;;;4958545;28;20046;-61
2024/01/04 05:24:01;;;;;;;10.07;9.45;;;;;;;;;;4958978;28;19933;-61
2024/01/04 05:26:27;;;;;;;10.25;9.55;;;;;;;;;;4956973;28;20045;-61
2024/01/04 05:28:52;;;;;;;11.13;10.30;;;;;;;;;;4955205;28;20453;-62
2024/01/04 05:31:19;;;;;;;10.45;9.75;;;;;;;;;;4963479;28;20559;-62
2024/01/04 05:33:46;;;;;;;10.43;9.73;;;;;;;;;;4960782;28;20051;-62
2024/01/04 05:36:12;;;;;;;9.85;9.35;;;;;;;;;;4960905;28;20062;-61
2024/01/04 05:38:37;;;;;;;10.60;9.70;;;;;;;;;;4963927;28;20636;-60
2024/01/04 05:41:04;;;;;;;10.85;10.25;;;;;;;;;;4965664;28;20045;-61
2024/01/04 05:43:31;;;;;;;10.40;9.70;;;;;;;;;;4959300;28;20065;-61
2024/01/04 05:45:56;;;;;;;10.75;9.95;;;;;;;;;;4959228;28;20035;-60
2024/01/04 05:48:22;;;;;;;11.10;10.32;;;;;;;;;;4963397;28;20420;-61
2024/01/04 05:50:49;;;;;;;10.43;9.73;;;;;;;;;;4960349;28;20637;-60
2024/01/04 05:53:15;;;;;;;10.23;9.63;;;;;;;;;;4969351;28;20062;-59
2024/01/04 05:55:40;;;;;;;10.48;9.77;;;;;;;;;;4961026;28;20492;-61
2024/01/04 05:58:06;;;;;;;9.93;9.32;;;;;;;;;;4960937;28;20038;-61
2024/01/04 06:00:31;;;;;;;10.20;9.60;;;;;;;;;;4960284;28;20133;-60
2024/01/04 06:02:57;;;;;;;10.05;9.45;;;;;;;;;;4964486;28;20159;-59
2024/01/04 06:05:22;;;;;;;10.48;9.82;;;;;;;;;;4961770;28;20118;-60
2024/01/04 06:07:48;;;;;;;10.65;9.90;;;;;;;;;;4961061;28;20035;-60
2024/01/04 06:10:14;;;;;;;10.90;10.25;;;;;;;;;;4966294;28;20058;-60
2024/01/04 06:12:39;;;;;;;10.77;9.93;;;;;;;;;;4959207;28;20663;-59
2024/01/04 06:15:05;;;;;;;10.18;9.48;;;;;;;;;;4962493;28;20504;-61
2024/01/04 06:17:31;;;;;;;10.68;10.00;;;;;;;;;;4963593;28;20035;-62
2024/01/04 06:19:56;;;;;;;10.23;9.73;;;;;;;;;;4961863;28;20543;-61
2024/01/04 06:22:22;;;;;;;10.05;9.40;;;;;;;;;;4965955;28;20043;-62
2024/01/04 06:24:47;;;;;;;10.52;9.82;;;;;;;;;;4963387;28;20117;-60
2024/01/04 06:27:13;;;;;;;10.32;9.73;;;;;;;;;;4965344;28;20039;-60
2024/01/04 06:29:39;;;;;;;10.40;9.80;;;;;;;;;;4966896;28;20046;-59
2024/01/04 06:32:04;;;;;;;10.43;9.73;;;;;;;;;;4966369;28;21117;-61
2024/01/04 06:34:30;;;;;;;10.45;9.60;;;;;;;;;;4966016;28;20034;-61
2024/01/04 06:36:55;;;;;;;9.50;9.00;;;;;;;;;;4960625;28;20833;-61
2024/01/04 06:39:21;;;;;;;10.35;9.50;;;;;;;;;;4960579;28;20033;-60
2024/01/04 06:41:46;;;;;;;9.18;8.55;;;;;;;;;;4964025;28;20053;-60
2024/01/04 06:44:12;;;;;;;10.88;9.93;;;;;;;;;;4965387;28;20031;-59
2024/01/04 06:46:38;;;;;;;9.38;8.77;;;;;;;;;;4964409;28;20034;-59
2024/01/04 06:49:03;;;;;;;10.13;9.45;;;;;;;;;;4964941;28;20069;-60
2024/01/04 06:51:29;;;;;;;9.57;8.90;;;;;;;;;;4966690;28;20129;-61
2024/01/04 06:53:54;;;;;;;10.60;9.80;;;;;;;;;;4966773;28;20035;-58
2024/01/04 06:56:20;;;;;;;10.82;9.82;;;;;;;;;;4967675;28;20050;-61
2024/01/04 06:58:46;;;;;;;10.80;9.88;;;;;;;;;;4965186;28;20098;-59
2024/01/04 07:01:11;;;;;;;11.00;10.10;;;;;;;;;;4960737;28;20757;-61
2024/01/04 07:03:37;;;;;;;10.32;9.43;;;;;;;;;;4958181;28;20168;-61
2024/01/04 07:06:02;;;;;;;9.77;9.13;;;;;;;;;;4966550;28;20045;-60
2024/01/04 07:08:28;;;;;;;12.43;9.48;;;;;;;;;;4969915;28;20038;-61
2024/01/04 07:10:54;;;;;;;19.08;9.65;;;;;;;;;;4961923;28;20566;-61
2024/01/04 07:13:20;;;;;;;10.38;9.43;;;;;;;;;;4963657;28;20038;-61
2024/01/04 07:15:46;;;;;;;10.13;9.32;;;;;;;;;;4961962;28;20052;-61
2024/01/04 07:18:11;;;;;;;11.32;9.20;;;;;;;;;;4966608;28;20046;-59
2024/01/04 07:20:37;;;;;;;10.80;10.10;;;;;;;;;;4959363;28;20038;-61
2024/01/04 07:23:04;;;;;;;10.40;9.60;;;;;;;;;;4961476;28;20077;-61
2024/01/04 07:25:32;;;;;;;10.70;10.00;;;;;;;;;;4963483;28;20042;-62
2024/01/04 07:27:58;;;;;;;10.63;9.85;;;;;;;;;;4957701;28;20055;-62
2024/01/04 07:30:23;;;;;;;9.48;8.98;;;;;;;;;;4963789;28;20599;-61
2024/01/04 07:32:49;;;;;;;9.63;9.02;;;;;;;;;;4964232;28;20074;-57
2024/01/04 07:35:16;;;;;;;9.85;9.05;;;;;;;;;;4961180;28;20039;-62
2024/01/04 07:37:41;;;;;;;10.38;9.77;;;;;;;;;;4960457;28;20042;-62
2024/01/04 07:40:07;;;;;;;9.93;9.23;;;;;;;;;;4962402;28;20045;-61
2024/01/04 07:42:33;;;;;;;9.98;9.13;;;;;;;;;;4962231;28;20039;-60
2024/01/04 07:44:59;;;;;;;10.07;9.40;;;;;;;;;;4955247;28;20740;-60
2024/01/04 07:47:24;;;;;;;10.25;9.55;;;;;;;;;;4945402;28;20767;-60
2024/01/04 07:49:50;;;;;;;9.40;8.90;;;;;;;;;;4958335;28;20094;-61
2024/01/04 07:52:16;;;;;;;9.27;8.68;;;;;;;;;;4961619;28;20045;-59
2024/01/04 07:54:41;;;;;;;12.48;9.48;;;;;;;;;;4964574;28;20077;-60
2024/01/04 07:57:07;;;;;;;9.85;9.15;;;;;;;;;;4959769;28;20042;-59
2024/01/04 07:59:32;;;;;;;10.10;9.40;;;;;;;;;;4945135;28;20041;-59
2024/01/04 08:01:58;;;;;;;9.73;9.13;;;;;;;;;;4956720;28;20031;-58
2024/01/04 08:04:23;;;;;;;9.68;8.80;;;;;;;;;;4966728;28;20047;-58
2024/01/04 08:06:50;;;;;;;9.95;9.25;;;;;;;;;;4965308;28;20080;-61
2024/01/04 08:09:19;;;;;;;10.32;9.52;;;;;;;;;;4962197;28;20023;-61
2024/01/04 08:11:45;;;;;;;9.45;8.82;;;;;;;;;;4959520;28;20745;-60
2024/01/04 08:14:11;;;;;;;9.50;8.85;;;;;;;;;;4967052;28;20058;-59
2024/01/04 08:16:37;;;;;;;9.50;8.75;;;;;;;;;;4966908;28;20100;-60
2024/01/04 08:19:03;;;;;;;9.98;9.38;;;;;;;;;;4963327;28;20080;-60
2024/01/04 08:21:28;;;;;;;11.38;10.38;;;;;;;;;;4966309;28;20030;-60
2024/01/04 08:23:54;;;;;;;10.95;10.02;;;;;;;;;;4965290;28;20039;-60
2024/01/04 08:26:19;;;;;;;11.35;10.50;;;;;;;;;;4967899;28;20114;-60
2024/01/04 08:28:45;;;;;;;10.50;9.80;;;;;;;;;;4963282;28;20061;-61
2024/01/04 08:31:11;;;;;;;9.55;9.02;;;;;;;;;;4966651;28;20039;-61
2024/01/04 08:33:37;;;;;;;10.70;9.85;;;;;;;;;;4967587;28;20536;-61
2024/01/04 08:36:04;;;;;;;9.48;8.75;;;;;;;;;;4964070;28;20697;-61
2024/01/04 08:38:30;;;;;;;10.05;9.25;;;;;;;;;;4967626;28;20128;-60
2024/01/04 08:40:56;;;;;;;10.80;10.10;;;;;;;;;;4964461;28;20045;-61
2024/01/04 08:43:21;;;;;;;11.07;9.07;;;;;;;;;;4964579;28;20038;-61
2024/01/04 08:45:47;;;;;;;9.65;9.05;;;;;;;;;;4955475;28;20044;-61
2024/01/04 08:48:13;;;;;;;9.52;8.93;;;;;;;;;;4959243;28;20720;-60
2024/01/04 08:50:39;;;;;;;9.40;8.80;;;;;;;;;;4967359;28;20043;-61
2024/01/04 08:53:05;;;;;;;10.88;9.23;;;;;;;;;;4963988;28;20039;-61
2024/01/04 08:55:30;;;;;;;10.02;9.13;;;;;;;;;;4950122;28;20038;-62
2024/01/04 08:57:57;;;;;;;9.95;9.02;;;;;;;;;;4964482;28;20485;-60
2024/01/04 09:00:24;;;;;;;10.05;9.25;;;;;;;;;;4962665;28;20145;-63
2024/01/04 09:02:50;;;;;;;9.57;8.95;;;;;;;;;;4961958;28;20077;-63
2024/01/04 09:05:15;;;;;;;8.95;8.45;;;;;;;;;;4961558;28;20039;-62
2024/01/04 09:07:41;;;;;;;9.98;9.38;;;;;;;;;;4964693;28;20038;-62
2024/01/04 09:10:07;;;;;;;9.05;8.55;;;;;;;;;;4961913;28;20046;-62
2024/01/04 09:12:34;;;;;;;10.40;9.60;;;;;;;;;;4951212;28;20893;-61
2024/01/04 09:14:59;;;;;;;10.20;9.25;;;;;;;;;;4965708;28;20030;-62
2024/01/04 09:17:25;;;;;;;13.18;10.20;;;;;;;;;;4968786;28;20563;-60
2024/01/04 09:19:51;;;;;;;9.55;8.77;;;;;;;;;;4961870;28;20407;-61
2024/01/04 09:22:17;;;;;;;9.63;8.98;;;;;;;;;;4961822;28;20117;-61
2024/01/04 09:24:44;;;;;;;9.95;9.35;;;;;;;;;;4967026;28;20484;-62
2024/01/04 09:27:11;;;;;;;9.05;8.35;;;;;;;;;;4962984;28;20042;-61
2024/01/04 09:29:37;;;;;;;9.45;8.65;;;;;;;;;;4953025;28;20039;-61
2024/01/04 09:32:03;;;;;;;10.00;9.32;;;;;;;;;;4969377;23;20038;-81
2024/01/04 09:34:29;;;;;;;9.48;8.68;;;;;;;;;;4977550;28;20050;-82
2024/01/04 09:36:54;;;;;;;9.07;8.38;;;;;;;;;;4990001;28;20030;-81
2024/01/04 09:39:20;;;;;;;9.80;9.02;;;;;;;;;;4954410;28;20115;-81
2024/01/04 09:41:47;;;;;;;10.25;9.10;;;;;;;;;;4975049;28;20042;-83
2024/01/04 09:44:14;;;;;;;9.85;9.07;;;;;;;;;;4974070;28;20193;-82
2024/01/04 09:46:41;;;;;;;9.40;8.65;;;;;;;;;;4973838;28;20030;-81
2024/01/04 09:49:09;;;;;;;10.23;9.55;;;;;;;;;;4977022;28;20054;-81
2024/01/04 09:51:39;;;;;;;9.80;9.20;;;;;;;;;;4969824;28;20049;-81
2024/01/04 09:54:09;;;;;;;10.05;9.35;;;;;;;;;;4969854;28;20042;-81
2024/01/04 09:56:50;;;;;;;10.52;9.90;;;;;;;;;;4974384;28;20049;-81
2024/01/04 09:59:16;;;;;;;10.20;9.52;;;;;;;;;;4974537;28;20037;-81
2024/01/04 10:01:43;;;;;;;10.45;9.75;;;;;;;;;;4977468;28;20034;-81
2024/01/04 10:04:14;;;;;;;10.60;9.80;;;;;;;;;;4961797;28;20527;-81
2024/01/04 10:06:42;;;;;;;10.27;9.57;;;;;;;;;;4977481;28;20493;-81
2024/01/04 10:09:35;;;;;;;9.13;8.52;;;;;;;;;;4976434;28;20108;-81
2024/01/04 10:12:07;;;;;;;10.90;9.88;;;;;;;;;;4979780;28;20042;-81
2024/01/04 10:14:34;;;;;;;11.40;10.63;;;;;;;;;;4989771;28;20046;-81
2024/01/04 10:17:00;;;;;;;11.20;10.30;;;;;;;;;;4976904;28;20043;-81
2024/01/04 10:19:27;;;;;;;10.88;10.00;;;;;;;;;;4977633;28;20042;-81
2024/01/04 10:21:52;;;;;;;10.52;9.70;;;;;;;;;;4979016;28;20045;-81
2024/01/04 10:24:23;;;;;;;9.27;8.68;;;;;;;;;;4978576;28;20041;-81
2024/01/04 10:27:00;;;;;;;11.57;10.48;;;;;;;;;;4947031;28;20091;-81
2024/01/04 10:29:28;;;;;;;10.38;9.48;;;;;;;;;;4980349;28;20026;-81
2024/01/04 10:32:04;;;;;;;10.75;9.68;;;;;;;;;;4976249;28;20077;-82
2024/01/04 10:34:33;;;;;;;10.10;9.40;;;;;;;;;;4977057;28;20093;-80
2024/01/04 10:37:12;;;;;;;9.95;9.05;;;;;;;;;;4960093;28;20521;-81
2024/01/04 10:39:39;;;;;;;10.80;9.90;;;;;;;;;;4989587;28;20100;-81
2024/01/04 10:42:07;;;;;;;9.82;9.02;;;;;;;;;;4976632;28;20917;-81
2024/01/04 10:44:33;;;;;;;9.50;8.80;;;;;;;;;;4980080;28;20042;-81
2024/01/04 10:47:01;;;;;;;9.63;8.90;;;;;;;;;;4981313;28;20042;-81
2024/01/04 10:49:26;;;;;;;10.00;9.30;;;;;;;;;;4976207;28;20034;-80
2024/01/04 10:52:02;;;;;;;10.50;9.57;;;;;;;;;;4974505;28;20140;-81
2024/01/04 10:54:32;;;;;;;9.55;8.85;;;;;;;;;;4960318;28;20058;-82
2024/01/04 10:57:02;;;;;;;11.13;9.80;;;;;;;;;;4944875;28;20042;-82
2024/01/04 10:59:29;;;;;;;9.88;8.90;;;;;;;;;;4956048;28;20607;-82
2024/01/04 11:01:57;;;;;;;13.05;9.13;;;;;;;;;;4960594;28;20085;-82
2024/01/04 11:04:24;;;;;;;10.15;9.30;;;;;;;;;;4957189;28;20057;-82
2024/01/04 11:06:52;;;;;;;11.02;9.88;;;;;;;;;;4941519;28;20285;-82
2024/01/04 11:09:19;;;;;;;11.63;10.75;;;;;;;;;;4993146;28;20415;-82
2024/01/04 11:11:45;;;;;;;10.15;9.27;;;;;;;;;;4961061;28;20057;-82
2024/01/04 11:14:11;;;;;;;10.40;9.50;;;;;;;;;;4958513;28;20045;-82
2024/01/04 11:16:39;;;;;;;10.90;9.75;;;;;;;;;;4960814;28;20046;-82
2024/01/04 11:19:13;;;;;;;10.95;10.02;;;;;;;;;;4953525;28;20117;-83
2024/01/04 11:21:44;;;;;;;10.85;9.48;;;;;;;;;;4974241;28;20034;-82
2024/01/04 11:24:45;;;;;;;10.38;9.57;;;;;;;;;;4972464;28;20069;-83
2024/01/04 11:27:14;;;;;;;9.93;9.32;;;;;;;;;;4960975;28;20061;-82
2024/01/04 11:29:41;;;;;;;11.00;10.05;;;;;;;;;;4958405;28;20492;-82
2024/01/04 11:32:07;;;;;;;10.00;9.25;;;;;;;;;;4991510;28;20047;-82
2024/01/04 11:34:33;;;;;;;10.82;9.98;;;;;;;;;;4961129;28;20470;-82
2024/01/04 11:37:16;;;;;;;10.38;9.43;;;;;;;;;;4973014;28;20054;-82
2024/01/04 11:40:03;;;;;;;10.45;9.60;;;;;;;;;;4954171;28;20492;-82
2024/01/04 11:42:37;;;;;;;10.32;9.40;;;;;;;;;;4944050;28;20041;-81
2024/01/04 11:45:04;;;;;;;10.25;9.30;;;;;;;;;;4969377;28;20049;-81
2024/01/04 11:47:41;;;;;;;9.77;8.98;;;;;;;;;;4976697;28;20053;-82
2024/01/04 11:50:24;;;;;;;10.60;9.55;;;;;;;;;;4942772;28;20039;-82
2024/01/04 11:53:00;;;;;;;10.73;9.82;;;;;;;;;;4957872;28;20509;-81
2024/01/04 11:55:26;;;;;;;11.30;10.52;;;;;;;;;;4976705;28;20068;-82
2024/01/04 11:58:06;;;;;;;11.68;10.73;;;;;;;;;;4939846;28;20644;-81
2024/01/04 12:00:36;;;;;;;10.25;9.52;;;;;;;;;;4956665;28;20046;-82
2024/01/04 12:03:14;;;;;;;11.50;10.38;;;;;;;;;;4974750;28;20049;-82
2024/01/04 12:05:45;;;;;;;12.18;11.02;;;;;;;;;;4974459;28;20030;-82
2024/01/04 12:08:29;;;;;;;12.20;11.25;;;;;;;;;;4958901;28;20093;-81
2024/01/04 12:10:57;;;;;;;9.95;9.15;;;;;;;;;;4972993;28;20046;-81
2024/01/04 12:13:23;;;;;;;11.02;9.98;;;;;;;;;;4960216;28;20389;-80
2024/01/04 12:15:51;;;;;;;9.85;9.25;;;;;;;;;;4940240;28;20382;-81
2024/01/04 12:18:17;;;;;;;10.73;9.82;;;;;;;;;;4975598;28;20038;-81
2024/01/04 12:20:44;;;;;;;10.88;10.15;;;;;;;;;;4979373;28;20118;-82
2024/01/04 12:23:10;;;;;;;12.18;10.95;;;;;;;;;;4965311;28;20129;-82
2024/01/04 12:25:37;;;;;;;11.50;10.40;;;;;;;;;;4971964;28;20038;-81
2024/01/04 12:28:05;;;;;;;10.73;9.93;;;;;;;;;;4971756;28;20030;-81
2024/01/04 12:30:31;;;;;;;12.18;10.98;;;;;;;;;;4957737;28;20049;-81
2024/01/04 12:32:57;;;;;;;10.95;10.05;;;;;;;;;;4952454;28;20034;-82
2024/01/04 12:35:22;;;;;;;10.68;9.75;;;;;;;;;;4957331;28;20050;-80
2024/01/04 12:38:03;;;;;;;10.25;9.55;;;;;;;;;;4955845;28;20045;-81
2024/01/04 12:40:39;;;;;;;10.00;9.35;;;;;;;;;;4953584;28;20048;-80
2024/01/04 12:43:05;;;;;;;9.68;9.13;;;;;;;;;;4967781;28;20034;-80
2024/01/04 12:45:31;;;;;;;10.55;9.75;;;;;;;;;;4955491;28;20038;-81
2024/01/04 12:48:04;;;;;;;9.80;9.10;;;;;;;;;;4973735;28;20509;-80
2024/01/04 12:50:30;;;;;;;9.60;8.90;;;;;;;;;;4974877;28;20042;-80
2024/01/04 12:52:56;;;;;;;10.10;9.45;;;;;;;;;;4955182;28;20046;-80
2024/01/04 12:55:21;;;;;;;10.25;9.10;;;;;;;;;;4950157;28;20143;-81
2024/01/04 12:57:47;;;;;;;10.52;9.57;;;;;;;;;;4938140;28;20054;-81
2024/01/04 13:00:14;;;;;;;9.70;9.00;;;;;;;;;;4975712;28;20039;-80
2024/01/04 13:02:40;;;;;;;10.15;9.23;;;;;;;;;;4973968;28;20030;-80
2024/01/04 13:05:08;;;;;;;9.27;8.68;;;;;;;;;;4972086;28;21752;-80
2024/01/04 13:07:34;;;;;;;9.77;9.18;;;;;;;;;;4974193;28;20081;-81
2024/01/04 13:10:00;;;;;;;10.00;9.30;;;;;;;;;;4957707;28;20623;-81
2024/01/04 13:12:25;;;;;;;9.80;9.10;;;;;;;;;;4973843;28;20038;-80
2024/01/04 13:14:51;;;;;;;11.25;10.18;;;;;;;;;;4959573;28;20045;-80
2024/01/04 13:17:18;;;;;;;11.85;10.60;;;;;;;;;;4959366;28;20041;-80
2024/01/04 13:19:43;;;;;;;10.20;9.50;;;;;;;;;;4955930;28;20030;-81
2024/01/04 13:22:09;;;;;;;10.52;9.63;;;;;;;;;;4972711;28;20140;-81
2024/01/04 13:24:35;;;;;;;10.40;9.40;;;;;;;;;;4975755;28;20034;-81
2024/01/04 13:27:00;;;;;;;11.15;9.95;;;;;;;;;;4973487;28;20046;-82
2024/01/04 13:29:27;;;;;;;9.95;9.20;;;;;;;;;;4958568;28;20679;-82
2024/01/04 14:45:30;;;;;;;8.13;7.63;;;;;;;;;;5074271;27;20385;-63
2024/01/04 14:47:56;;;;;;;8.23;7.63;;;;;;;;;;5055094;28;20847;-62
2024/01/04 14:50:22;;;;;;;8.52;8.02;;;;;;;;;;5054231;28;20040;-62
2024/01/04 14:52:47;;;;;;;8.20;7.50;;;;;;;;;;5058139;28;20115;-63
2024/01/04 14:55:13;;;;;;;30.92;9.43;;;;;;;;;;5048456;28;20045;-62
2024/01/04 14:57:42;;;;;;;8.90;8.00;;;;;;;;;;5050323;28;20319;-62
2024/01/04 15:00:13;;;;;;;8.65;8.05;;;;;;;;;;5046751;28;20428;-62
2024/01/04 15:02:39;;;;;;;15.55;8.43;;;;;;;;;;5047443;28;20036;-62
2024/01/04 15:05:07;;;;;;;9.27;8.40;;;;;;;;;;5052273;28;20029;-62
2024/01/04 15:07:34;;;;;;;8.73;8.00;;;;;;;;;;5054194;28;20044;-62
2024/01/04 15:10:00;;;;;;;8.90;8.27;;;;;;;;;;5049948;28;20036;-61
2024/01/04 15:12:26;;;;;;;8.23;7.70;;;;;;;;;;5050551;28;20036;-62
2024/01/04 15:14:52;;;;;;;8.30;7.60;;;;;;;;;;5050810;28;20040;-62
2024/01/04 15:17:18;;;;;;;8.40;7.70;;;;;;;;;;5054950;28;20037;-62
2024/01/04 15:19:43;;;;;;;8.85;8.25;;;;;;;;;;5051154;28;20032;-62
2024/01/04 15:22:09;;;;;;;8.50;7.90;;;;;;;;;;5049165;28;20043;-61
2024/01/04 15:24:35;;;;;;;8.15;7.57;;;;;;;;;;5052918;28;20032;-60
2024/01/04 15:27:02;;;;;;;9.18;8.20;;;;;;;;;;5051270;28;20090;-62
2024/01/04 15:29:28;;;;;;;15.02;10.80;;;;;;;;;;5052780;28;20047;-61
2024/01/04 15:31:53;;;;;;;30.58;13.82;;;;;;;;;;5049035;28;20032;-61
2024/01/04 15:34:19;;;;;;;8.38;7.78;;;;;;;;;;5052357;28;20044;-62
2024/01/04 15:36:44;;;;;;;7.88;7.38;;;;;;;;;;5052230;28;20036;-62
2024/01/04 15:39:11;;;;;;;12.15;7.97;;;;;;;;;;5047825;28;20040;-62
2024/01/04 15:41:37;;;;;;;9.02;8.40;;;;;;;;;;5050504;28;20047;-61
2024/01/04 15:44:03;;;;;;;8.57;7.65;;;;;;;;;;5050617;28;20037;-60
2024/01/04 15:46:29;;;;;;;8.77;8.05;;;;;;;;;;5052512;28;20047;-62
2024/01/04 15:48:54;;;;;;;8.68;7.82;;;;;;;;;;5048079;28;20065;-62